Time;durP1;ratioP1;P1;durP2;ratioP2;P2;SDS_P1;SDS_P2;PMS_P1;PMS_P2;Temp;Humidity;BMP_temperature;BMP_pressure;BME280_temperature;BME280_humidity;BME280_pressure;Samples;Min_cycle;Max_cycle;Signal;HPM_P1;HPM_P2
2021/08/05 00:01:22;;;;;;;1.92;1.10;;;23.90;56.60;;;;;;5056944;28;20123;-45
2021/08/05 00:03:47;;;;;;;1.48;1.00;;;23.90;56.60;;;;;;5052258;28;20367;-45
2021/08/05 00:06:13;;;;;;;2.50;1.20;;;23.90;56.80;;;;;;5050695;28;20029;-44
2021/08/05 00:08:39;;;;;;;1.30;0.95;;;23.90;56.70;;;;;;5051808;28;20037;-45
2021/08/05 00:11:05;;;;;;;2.75;1.30;;;23.80;56.70;;;;;;5051111;28;20035;-45
2021/08/05 00:13:30;;;;;;;1.23;1.00;;;23.80;56.80;;;;;;5052124;28;20021;-45
2021/08/05 00:15:56;;;;;;;2.47;1.15;;;23.80;56.80;;;;;;5052208;28;20554;-51
2021/08/05 00:18:22;;;;;;;1.23;1.02;;;23.80;56.80;;;;;;5051470;28;20051;-45
2021/08/05 00:20:48;;;;;;;1.23;0.90;;;23.80;56.80;;;;;;5051935;28;20053;-46
2021/08/05 00:23:14;;;;;;;1.27;0.90;;;23.80;56.90;;;;;;5050722;28;20025;-45
2021/08/05 00:25:39;;;;;;;1.75;1.10;;;23.80;57.00;;;;;;5051373;28;20036;-44
2021/08/05 00:28:05;;;;;;;2.60;1.08;;;23.80;57.00;;;;;;5049750;28;20037;-45
2021/08/05 00:30:31;;;;;;;1.10;0.95;;;23.80;57.00;;;;;;5052012;28;20116;-45
2021/08/05 00:32:57;;;;;;;1.55;1.10;;;23.80;57.00;;;;;;5051443;28;20029;-50
2021/08/05 00:35:22;;;;;;;1.13;0.90;;;23.70;56.90;;;;;;5050749;28;20029;-45
2021/08/05 00:37:48;;;;;;;2.13;1.00;;;23.60;57.00;;;;;;5051693;28;20154;-44
2021/08/05 00:40:14;;;;;;;2.45;1.20;;;23.60;57.10;;;;;;5050779;28;20056;-45
2021/08/05 00:42:39;;;;;;;3.50;1.13;;;23.60;57.10;;;;;;5051904;28;20043;-44
2021/08/05 00:45:05;;;;;;;1.95;1.27;;;23.60;57.10;;;;;;5050725;28;20098;-46
2021/08/05 00:47:31;;;;;;;1.58;1.05;;;23.60;57.10;;;;;;5051336;28;20436;-45
2021/08/05 00:49:58;;;;;;;1.30;1.00;;;23.60;57.10;;;;;;5051639;28;20033;-50
2021/08/05 00:52:24;;;;;;;3.83;1.20;;;23.50;57.10;;;;;;5051042;28;20151;-45
2021/08/05 00:54:50;;;;;;;1.67;1.13;;;23.50;57.00;;;;;;5051672;28;20025;-44
2021/08/05 00:57:16;;;;;;;1.80;1.02;;;23.60;57.00;;;;;;5050416;28;20033;-44
2021/08/05 00:59:41;;;;;;;2.65;1.23;;;23.60;56.90;;;;;;5051309;28;20056;-44
2021/08/05 01:02:17;;;;;;;2.25;1.08;;;23.60;56.90;;;;;;5051070;28;20029;-45
2021/08/05 01:04:46;;;;;;;1.67;0.95;;;23.60;56.90;;;;;;5051936;28;20068;-45
2021/08/05 01:07:40;;;;;;;1.45;1.00;;;23.60;56.90;;;;;;5050945;28;20029;-44
2021/08/05 01:10:38;;;;;;;4.70;2.00;;;23.60;57.00;;;;;;5047236;28;20068;-44
2021/08/05 01:13:23;;;;;;;2.03;1.00;;;23.60;56.90;;;;;;5051113;28;20076;-44
2021/08/05 01:15:52;;;;;;;1.00;0.90;;;23.60;56.80;;;;;;5051476;28;20411;-45
2021/08/05 01:18:29;;;;;;;1.92;1.40;;;23.60;56.80;;;;;;5050825;28;20033;-48
2021/08/05 01:20:56;;;;;;;2.53;1.52;;;23.60;56.80;;;;;;5051613;28;20047;-44
2021/08/05 01:23:54;;;;;;;1.00;0.90;;;23.60;56.80;;;;;;5050434;28;20037;-44
2021/08/05 01:26:41;;;;;;;1.88;1.10;;;23.60;56.80;;;;;;5050627;28;20032;-44
2021/08/05 01:29:08;;;;;;;2.00;1.10;;;23.60;56.80;;;;;;5050690;28;20041;-44
2021/08/05 01:31:34;;;;;;;1.23;0.93;;;23.60;56.80;;;;;;5051297;28;20108;-44
2021/08/05 01:34:00;;;;;;;2.22;1.20;;;23.60;56.80;;;;;;5051270;28;20104;-51
2021/08/05 01:36:28;;;;;;;1.63;1.20;;;23.60;56.90;;;;;;5051108;28;20032;-44
2021/08/05 01:38:56;;;;;;;2.08;1.70;;;23.50;56.80;;;;;;5050678;28;20025;-45
2021/08/05 01:41:22;;;;;;;1.40;0.95;;;23.60;56.90;;;;;;5053773;28;20025;-46
2021/08/05 01:43:50;;;;;;;1.95;1.00;;;23.50;56.80;;;;;;5054897;28;20055;-45
2021/08/05 01:46:19;;;;;;;10.25;1.88;;;23.50;56.80;;;;;;5053737;28;20056;-44
2021/08/05 01:48:47;;;;;;;1.20;0.93;;;23.50;56.90;;;;;;5054738;28;20116;-46
2021/08/05 01:51:14;;;;;;;2.85;1.33;;;23.50;56.90;;;;;;5053961;28;20025;-44
2021/08/05 01:53:39;;;;;;;1.95;1.17;;;23.50;56.90;;;;;;5054582;28;20024;-45
2021/08/05 01:56:05;;;;;;;2.42;1.10;;;23.40;56.90;;;;;;5053894;28;20031;-45
2021/08/05 01:58:31;;;;;;;1.23;1.10;;;23.40;56.90;;;;;;5054352;28;20052;-45
2021/08/05 02:00:56;;;;;;;1.60;1.10;;;23.40;57.00;;;;;;5052946;28;20056;-44
2021/08/05 02:03:22;;;;;;;2.80;1.52;;;23.40;57.00;;;;;;5053831;28;20025;-44
2021/08/05 02:06:13;;;;;;;1.98;1.10;;;23.50;57.00;;;;;;5054118;28;20025;-44
2021/08/05 02:08:51;;;;;;;4.05;1.40;;;23.50;56.90;;;;;;5054449;28;20086;-45
2021/08/05 02:11:21;;;;;;;2.35;1.13;;;23.50;56.90;;;;;;5053416;28;20055;-45
2021/08/05 02:13:49;;;;;;;1.98;1.08;;;23.50;56.80;;;;;;5054761;28;20029;-47
2021/08/05 02:16:17;;;;;;;2.05;1.02;;;23.50;56.80;;;;;;5053297;28;20377;-44
2021/08/05 02:18:45;;;;;;;1.75;1.20;;;23.50;56.70;;;;;;5054328;28;20033;-44
2021/08/05 02:21:13;;;;;;;1.15;1.05;;;23.50;56.60;;;;;;5053375;28;20086;-45
2021/08/05 02:23:41;;;;;;;2.65;1.20;;;23.60;56.60;;;;;;5053912;28;20394;-45
2021/08/05 02:26:07;;;;;;;3.08;1.23;;;23.50;56.60;;;;;;5052882;28;20035;-45
2021/08/05 02:28:33;;;;;;;1.83;1.65;;;23.50;56.60;;;;;;5054304;28;20045;-44
2021/08/05 02:31:00;;;;;;;4.15;2.08;;;23.60;56.60;;;;;;5053862;28;20041;-48
2021/08/05 02:33:27;;;;;;;1.60;1.30;;;23.50;56.60;;;;;;5053991;28;20078;-44
2021/08/05 02:35:54;;;;;;;2.03;1.10;;;23.60;56.60;;;;;;5054053;28;20038;-44
2021/08/05 02:38:20;;;;;;;1.35;1.10;;;23.60;56.60;;;;;;5053094;28;20744;-44
2021/08/05 02:40:48;;;;;;;2.05;1.13;;;23.60;56.50;;;;;;5053584;28;20021;-46
2021/08/05 02:43:15;;;;;;;1.20;1.02;;;23.60;56.50;;;;;;5053237;28;20021;-44
2021/08/05 02:45:43;;;;;;;2.03;1.20;;;23.60;56.50;;;;;;5053571;28;20025;-44
2021/08/05 02:48:11;;;;;;;1.08;0.93;;;23.60;56.50;;;;;;5052470;28;20037;-45
2021/08/05 02:50:37;;;;;;;2.10;1.10;;;23.60;56.60;;;;;;5053497;28;20051;-45
2021/08/05 02:53:04;;;;;;;1.55;1.25;;;23.60;56.60;;;;;;5052612;28;20024;-47
2021/08/05 02:55:30;;;;;;;1.77;1.27;;;23.60;56.60;;;;;;5054001;28;20527;-44
2021/08/05 02:57:58;;;;;;;2.42;1.33;;;23.50;56.60;;;;;;5053850;28;20025;-44
2021/08/05 03:00:24;;;;;;;1.90;1.40;;;23.50;56.70;;;;;;5052580;28;20167;-44
2021/08/05 03:02:50;;;;;;;1.77;1.48;;;23.40;56.70;;;;;;5053436;28;20373;-44
2021/08/05 03:05:17;;;;;;;1.60;1.15;;;23.40;56.80;;;;;;5051390;28;20025;-46
2021/08/05 03:07:43;;;;;;;1.75;1.25;;;23.40;56.80;;;;;;5053036;28;20028;-44
2021/08/05 03:10:12;;;;;;;2.40;1.40;;;23.40;56.70;;;;;;5052205;28;20033;-45
2021/08/05 03:12:38;;;;;;;2.78;1.63;;;23.50;56.70;;;;;;5053107;28;20036;-44
2021/08/05 03:15:04;;;;;;;1.83;1.13;;;23.50;56.70;;;;;;5052432;28;20025;-52
2021/08/05 03:17:30;;;;;;;1.92;1.00;;;23.40;56.60;;;;;;5053220;28;20029;-46
2021/08/05 03:19:55;;;;;;;1.63;1.17;;;23.40;56.60;;;;;;5053069;28;20032;-45
2021/08/05 03:22:21;;;;;;;1.50;1.23;;;23.40;56.60;;;;;;5052277;28;20029;-45
2021/08/05 03:24:47;;;;;;;1.48;1.10;;;23.40;56.60;;;;;;5052795;28;20029;-44
2021/08/05 03:27:12;;;;;;;2.10;1.25;;;23.40;56.60;;;;;;5051388;28;20032;-45
2021/08/05 03:29:38;;;;;;;2.15;1.20;;;23.40;56.60;;;;;;5052756;28;20033;-44
2021/08/05 03:32:05;;;;;;;4.43;1.20;;;23.40;56.50;;;;;;5052039;28;20033;-49
2021/08/05 03:34:31;;;;;;;2.40;1.15;;;23.40;56.50;;;;;;5052960;28;20057;-45
2021/08/05 03:36:57;;;;;;;2.35;1.80;;;23.40;56.50;;;;;;5052733;28;20103;-45
2021/08/05 03:39:23;;;;;;;1.70;1.23;;;23.40;56.50;;;;;;5051935;28;20025;-45
2021/08/05 03:41:50;;;;;;;2.00;1.30;;;23.40;56.50;;;;;;5052333;28;20111;-47
2021/08/05 03:44:16;;;;;;;2.00;1.30;;;23.30;56.50;;;;;;5051774;28;20116;-44
2021/08/05 03:46:42;;;;;;;1.25;1.15;;;23.30;56.40;;;;;;5052610;28;20037;-44
2021/08/05 03:49:07;;;;;;;2.05;1.00;;;23.40;56.40;;;;;;5051464;28;20040;-46
2021/08/05 03:51:33;;;;;;;2.45;1.33;;;23.40;56.40;;;;;;5051275;28;20497;-45
2021/08/05 03:53:59;;;;;;;3.85;1.60;;;23.40;56.40;;;;;;5052430;28;20044;-46
2021/08/05 03:56:25;;;;;;;2.42;1.30;;;23.40;56.30;;;;;;5051626;28;20110;-44
2021/08/05 03:58:51;;;;;;;2.35;1.50;;;23.40;56.30;;;;;;5052115;28;20060;-45
2021/08/05 04:01:16;;;;;;;2.00;1.10;;;23.50;56.30;;;;;;5051617;28;20454;-45
2021/08/05 04:03:42;;;;;;;1.38;1.08;;;23.50;56.30;;;;;;5051798;28;20056;-45
2021/08/05 04:06:08;;;;;;;1.70;1.25;;;23.50;56.30;;;;;;5051543;28;20474;-44
2021/08/05 04:08:35;;;;;;;1.20;1.10;;;23.50;56.20;;;;;;5051820;28;20499;-44
2021/08/05 04:11:01;;;;;;;1.85;1.10;;;23.50;56.20;;;;;;5052232;28;20059;-44
2021/08/05 04:13:26;;;;;;;1.85;1.20;;;23.50;56.30;;;;;;5050568;28;20842;-45
2021/08/05 04:15:52;;;;;;;2.97;1.30;;;23.50;56.30;;;;;;5051723;28;20040;-44
2021/08/05 04:18:18;;;;;;;1.63;1.50;;;23.50;56.30;;;;;;5051012;28;20029;-45
2021/08/05 04:20:44;;;;;;;1.35;1.10;;;23.50;56.30;;;;;;5052297;28;20021;-44
2021/08/05 04:23:09;;;;;;;1.52;1.30;;;23.50;56.30;;;;;;5051070;28;20078;-45
2021/08/05 04:25:35;;;;;;;1.50;1.20;;;23.50;56.30;;;;;;5052016;28;20352;-44
2021/08/05 04:28:01;;;;;;;2.25;1.27;;;23.60;56.30;;;;;;5051157;28;20037;-44
2021/08/05 04:30:27;;;;;;;2.55;1.25;;;23.50;56.30;;;;;;5050187;28;20048;-45
2021/08/05 04:32:52;;;;;;;1.85;1.40;;;23.60;56.40;;;;;;5050846;28;20029;-46
2021/08/05 04:35:18;;;;;;;1.52;1.35;;;23.50;56.30;;;;;;5050212;28;20021;-44
2021/08/05 04:37:51;;;;;;;1.25;1.00;;;23.60;56.40;;;;;;5050305;28;20386;-44
2021/08/05 04:40:17;;;;;;;1.13;0.98;;;23.50;56.50;;;;;;5047653;28;20025;-46
2021/08/05 04:42:43;;;;;;;1.33;1.05;;;23.60;56.50;;;;;;5050596;28;20028;-44
2021/08/05 04:45:10;;;;;;;2.00;1.30;;;23.50;56.50;;;;;;5049989;28;20032;-44
2021/08/05 04:47:52;;;;;;;1.75;1.13;;;23.50;56.60;;;;;;5047968;28;20104;-44
2021/08/05 04:50:19;;;;;;;5.05;1.40;;;23.50;56.70;;;;;;5048073;28;20033;-45
2021/08/05 04:52:45;;;;;;;1.73;1.10;;;23.50;56.70;;;;;;5050317;28;20525;-45
2021/08/05 04:55:11;;;;;;;1.50;1.23;;;23.50;56.80;;;;;;5049493;28;20029;-45
2021/08/05 04:57:51;;;;;;;1.30;0.98;;;23.50;56.80;;;;;;5050498;28;20021;-44
2021/08/05 05:00:37;;;;;;;1.45;1.20;;;23.50;56.80;;;;;;5046436;28;20080;-45
2021/08/05 05:03:03;;;;;;;1.20;0.98;;;23.50;56.80;;;;;;5049329;28;20028;-44
2021/08/05 05:05:31;;;;;;;1.20;1.05;;;23.50;57.40;;;;;;5049835;28;20115;-45
2021/08/05 05:08:10;;;;;;;1.52;1.33;;;23.50;56.80;;;;;;5048285;28;20132;-46
2021/08/05 05:10:36;;;;;;;1.58;1.30;;;23.60;56.80;;;;;;5047855;28;20079;-44
2021/08/05 05:13:01;;;;;;;2.03;1.17;;;23.50;56.70;;;;;;5049906;28;20017;-45
2021/08/05 05:15:27;;;;;;;0.77;0.70;;;23.50;57.30;;;;;;5051729;28;20035;-48
2021/08/05 05:17:53;;;;;;;2.00;1.45;;;23.50;56.70;;;;;;5054597;28;20056;-44
2021/08/05 05:20:18;;;;;;;2.70;1.20;;;23.50;56.70;;;;;;5052262;28;20033;-44
2021/08/05 05:22:44;;;;;;;3.13;1.10;;;23.60;56.80;;;;;;5055212;28;20060;-44
2021/08/05 05:25:12;;;;;;;2.35;1.02;;;23.60;56.70;;;;;;5054077;28;20442;-45
2021/08/05 05:27:40;;;;;;;2.47;1.60;;;23.60;57.50;;;;;;5055025;28;20028;-44
2021/08/05 05:30:09;;;;;;;2.75;1.73;;;23.60;57.20;;;;;;5055138;28;20121;-52
2021/08/05 05:32:36;;;;;;;3.95;1.95;;;23.50;57.00;;;;;;5055154;28;20116;-45
2021/08/05 05:35:02;;;;;;;4.55;1.50;;;23.40;57.40;;;;;;5054962;28;20112;-45
2021/08/05 05:37:28;;;;;;;3.33;1.92;;;23.30;57.60;;;;;;5053847;28;20107;-48
2021/08/05 05:39:55;;;;;;;2.65;1.60;;;23.20;57.80;;;;;;5055035;28;20107;-49
2021/08/05 05:42:22;;;;;;;5.45;2.03;;;22.80;58.90;;;;;;5054643;28;20378;-44
2021/08/05 05:44:48;;;;;;;3.17;1.75;;;22.60;59.90;;;;;;5054642;28;20037;-47
2021/08/05 05:47:14;;;;;;;7.10;1.90;;;22.70;59.70;;;;;;5054139;28;20532;-43
2021/08/05 05:49:40;;;;;;;5.20;2.03;;;22.80;59.30;;;;;;5054458;28;20557;-45
2021/08/05 05:52:06;;;;;;;4.40;1.67;;;22.90;59.00;;;;;;5054838;28;20065;-44
2021/08/05 05:54:32;;;;;;;5.35;2.08;;;23.00;58.60;;;;;;5053975;28;20037;-45
2021/08/05 05:56:58;;;;;;;7.10;1.75;;;23.10;58.60;;;;;;5054649;28;20522;-43
2021/08/05 05:59:24;;;;;;;2.72;1.58;;;23.00;58.70;;;;;;5053287;28;20057;-43
2021/08/05 06:01:50;;;;;;;3.97;1.70;;;23.10;58.60;;;;;;5054496;28;20501;-44
2021/08/05 06:04:15;;;;;;;2.45;1.92;;;23.00;58.80;;;;;;5053848;28;20482;-45
2021/08/05 06:06:41;;;;;;;4.75;1.83;;;23.10;58.50;;;;;;5054302;28;20027;-44
2021/08/05 06:09:06;;;;;;;2.72;1.88;;;23.10;58.40;;;;;;5054208;28;20025;-42
2021/08/05 06:11:32;;;;;;;5.18;1.80;;;23.00;58.60;;;;;;5053512;28;20119;-45
2021/08/05 06:13:58;;;;;;;7.38;2.10;;;23.00;58.60;;;;;;5052896;28;20466;-44
2021/08/05 06:16:24;;;;;;;3.17;1.90;;;22.70;59.50;;;;;;5053075;28;20091;-44
2021/08/05 06:18:51;;;;;;;5.60;1.90;;;22.30;60.50;;;;;;5054117;28;20119;-44
2021/08/05 06:21:16;;;;;;;6.57;1.88;;;22.20;61.30;;;;;;5053176;28;20108;-44
2021/08/05 06:23:42;;;;;;;5.80;1.42;;;22.00;61.70;;;;;;5049755;28;20104;-44
2021/08/05 06:26:08;;;;;;;4.60;1.75;;;22.40;60.60;;;;;;5053836;28;20057;-43
2021/08/05 06:28:34;;;;;;;6.20;1.50;;;22.80;59.50;;;;;;5053948;28;20040;-43
2021/08/05 06:31:03;;;;;;;4.20;1.40;;;23.00;59.00;;;;;;5053945;28;20095;-43
2021/08/05 06:33:29;;;;;;;3.17;1.30;;;23.20;58.70;;;;;;5053031;28;20029;-43
2021/08/05 06:35:55;;;;;;;1.98;1.30;;;23.30;58.50;;;;;;5053797;28;20021;-43
2021/08/05 06:38:21;;;;;;;2.97;1.45;;;23.30;58.40;;;;;;5051386;28;20033;-43
2021/08/05 06:40:47;;;;;;;2.85;1.20;;;23.40;58.20;;;;;;5053926;28;20036;-45
2021/08/05 06:43:12;;;;;;;3.85;1.50;;;23.40;58.30;;;;;;5053099;28;20033;-49
2021/08/05 06:45:39;;;;;;;2.95;1.58;;;23.40;58.20;;;;;;5053341;28;20459;-43
2021/08/05 06:48:05;;;;;;;2.70;1.30;;;23.50;58.20;;;;;;5053395;28;20371;-46
2021/08/05 06:50:31;;;;;;;3.08;1.40;;;23.50;58.20;;;;;;5052801;28;20029;-43
2021/08/05 06:52:57;;;;;;;2.80;1.38;;;23.50;58.10;;;;;;5064873;28;20047;-44
2021/08/05 06:55:22;;;;;;;4.25;1.88;;;23.50;58.10;;;;;;5072274;28;20074;-43
2021/08/05 06:57:48;;;;;;;1.70;1.40;;;23.50;58.20;;;;;;5073673;28;20028;-45
2021/08/05 07:00:14;;;;;;;2.00;1.15;;;23.50;58.00;;;;;;5071822;28;20092;-45
2021/08/05 07:02:40;;;;;;;5.30;1.17;;;23.50;58.10;;;;;;5056067;28;20056;-43
2021/08/05 07:05:09;;;;;;;3.28;1.60;;;23.50;58.10;;;;;;5053681;28;20060;-43
2021/08/05 07:07:36;;;;;;;3.40;1.63;;;23.50;58.00;;;;;;5053008;28;20031;-43
2021/08/05 07:10:02;;;;;;;3.47;1.30;;;23.50;58.00;;;;;;5052891;28;20044;-43
2021/08/05 07:12:28;;;;;;;2.70;1.20;;;23.50;58.00;;;;;;5052533;28;20045;-44
2021/08/05 07:14:54;;;;;;;2.08;1.20;;;23.50;58.00;;;;;;5053270;28;20033;-43
2021/08/05 07:17:19;;;;;;;1.98;1.35;;;23.50;58.00;;;;;;5051841;28;20025;-44
2021/08/05 07:19:45;;;;;;;3.80;1.58;;;23.50;57.90;;;;;;5053208;28;20433;-43
2021/08/05 07:22:11;;;;;;;1.40;1.15;;;23.40;57.90;;;;;;5057930;28;20035;-48
2021/08/05 07:24:37;;;;;;;1.73;1.13;;;23.40;57.90;;;;;;5072390;28;20461;-43
2021/08/05 07:27:03;;;;;;;3.35;1.23;;;23.50;57.90;;;;;;5073176;28;20082;-44
2021/08/05 07:29:29;;;;;;;1.80;1.15;;;23.50;57.90;;;;;;5071847;28;20044;-44
2021/08/05 07:31:56;;;;;;;2.85;1.65;;;23.60;58.00;;;;;;5066547;28;20423;-43
2021/08/05 07:34:22;;;;;;;2.25;1.55;;;23.60;57.90;;;;;;5051777;28;20103;-45
2021/08/05 07:36:48;;;;;;;3.20;1.20;;;23.60;57.90;;;;;;5052628;28;20035;-44
2021/08/05 07:39:14;;;;;;;2.97;1.40;;;23.50;57.80;;;;;;5051846;28;20394;-49
2021/08/05 07:41:40;;;;;;;3.65;1.20;;;23.50;57.70;;;;;;5052429;28;20036;-43
2021/08/05 07:44:07;;;;;;;2.03;1.17;;;23.60;57.80;;;;;;5052817;28;20463;-44
2021/08/05 07:46:33;;;;;;;1.23;1.10;;;23.60;57.80;;;;;;5051606;28;20664;-44
2021/08/05 07:48:58;;;;;;;1.85;1.30;;;23.60;57.80;;;;;;5052559;28;20102;-43
2021/08/05 07:51:24;;;;;;;1.52;1.17;;;23.60;57.80;;;;;;5051734;28;20032;-43
2021/08/05 07:53:49;;;;;;;1.90;1.30;;;23.60;57.80;;;;;;5071579;28;20024;-43
2021/08/05 07:56:15;;;;;;;2.95;1.63;;;23.60;57.70;;;;;;5071696;28;20507;-50
2021/08/05 07:58:41;;;;;;;1.48;1.05;;;23.60;57.70;;;;;;5052354;28;20039;-44
2021/08/05 08:01:06;;;;;;;1.80;1.00;;;23.60;57.80;;;;;;5053296;28;20462;-43
2021/08/05 08:03:32;;;;;;;1.55;1.33;;;23.60;57.80;;;;;;5052423;28;20039;-44
2021/08/05 08:05:58;;;;;;;1.83;1.00;;;23.60;57.60;;;;;;5051961;28;20051;-44
2021/08/05 08:08:24;;;;;;;3.05;1.48;;;23.60;57.60;;;;;;5051024;28;20040;-43
2021/08/05 08:10:50;;;;;;;2.40;1.48;;;23.60;57.60;;;;;;5051919;28;20428;-44
2021/08/05 08:13:16;;;;;;;1.30;1.17;;;23.60;57.50;;;;;;5047069;28;20147;-43
2021/08/05 08:15:41;;;;;;;1.75;1.40;;;23.60;57.50;;;;;;5053087;28;20074;-44
2021/08/05 08:18:07;;;;;;;1.77;1.25;;;23.60;57.60;;;;;;5053302;28;20036;-44
2021/08/05 08:20:33;;;;;;;2.53;1.27;;;23.60;57.70;;;;;;5051072;28;20817;-44
2021/08/05 08:22:59;;;;;;;3.75;1.38;;;23.60;57.60;;;;;;5051457;28;20437;-44
2021/08/05 08:25:25;;;;;;;3.58;1.40;;;23.60;57.40;;;;;;5050009;28;20025;-43
2021/08/05 08:27:51;;;;;;;3.03;1.63;;;23.60;57.50;;;;;;5051286;28;20136;-43
2021/08/05 08:30:16;;;;;;;2.10;1.38;;;23.60;57.60;;;;;;5050822;28;20047;-49
2021/08/05 08:32:44;;;;;;;3.78;2.38;;;23.60;57.40;;;;;;5051162;28;20037;-44
2021/08/05 08:35:10;;;;;;;3.28;1.52;;;23.60;57.40;;;;;;5051975;28;20029;-43
2021/08/05 08:37:36;;;;;;;1.50;1.20;;;23.60;57.40;;;;;;5051826;28;20100;-43
2021/08/05 08:40:03;;;;;;;1.42;1.30;;;23.60;57.50;;;;;;5051733;28;20120;-43
2021/08/05 08:42:30;;;;;;;2.90;1.30;;;23.60;57.60;;;;;;5051073;28;20037;-44
2021/08/05 08:44:55;;;;;;;1.83;1.13;;;23.60;57.50;;;;;;5049887;28;20021;-43
2021/08/05 08:47:22;;;;;;;2.17;1.50;;;23.70;57.60;;;;;;5050103;28;20481;-43
2021/08/05 08:49:51;;;;;;;3.78;1.58;;;23.60;57.50;;;;;;5052761;28;20044;-44
2021/08/05 08:52:22;;;;;;;2.53;1.40;;;23.60;57.60;;;;;;5054393;28;20053;-49
2021/08/05 08:54:50;;;;;;;2.07;1.20;;;23.70;57.60;;;;;;5055840;28;20104;-43
2021/08/05 08:57:20;;;;;;;1.55;1.33;;;23.60;57.50;;;;;;5055412;28;20035;-49
2021/08/05 08:59:46;;;;;;;1.98;1.20;;;23.70;57.60;;;;;;5055208;28;20140;-44
2021/08/05 09:02:12;;;;;;;1.88;1.30;;;23.70;57.50;;;;;;5055330;28;20397;-43
2021/08/05 09:04:39;;;;;;;1.83;1.27;;;23.70;57.60;;;;;;5054580;28;20029;-45
2021/08/05 09:07:05;;;;;;;1.98;1.20;;;23.70;57.50;;;;;;5054442;28;20060;-44
2021/08/05 09:09:31;;;;;;;2.22;1.35;;;23.60;57.50;;;;;;5054613;28;20033;-44
2021/08/05 09:11:56;;;;;;;2.00;1.17;;;23.60;57.30;;;;;;5054956;28;20064;-47
2021/08/05 09:14:49;;;;;;;2.13;1.50;;;23.60;57.30;;;;;;5054412;28;20028;-44
2021/08/05 09:17:38;;;;;;;1.45;1.30;;;23.60;57.40;;;;;;5055462;28;20025;-44
2021/08/05 09:20:11;;;;;;;3.00;1.38;;;23.70;57.30;;;;;;5055426;28;20475;-44
2021/08/05 09:22:44;;;;;;;1.67;1.23;;;23.70;57.20;;;;;;5052904;28;20213;-45
2021/08/05 09:25:25;;;;;;;2.55;1.30;;;23.70;57.30;;;;;;5053750;28;20033;-44
2021/08/05 09:27:54;;;;;;;2.58;1.45;;;23.70;57.30;;;;;;5037484;28;20385;-44
2021/08/05 09:30:33;;;;;;;2.15;1.58;;;23.70;57.30;;;;;;5054143;28;20040;-49
2021/08/05 09:33:17;;;;;;;1.35;1.17;;;23.70;57.30;;;;;;5054986;28;20029;-43
2021/08/05 09:35:45;;;;;;;1.52;1.30;;;23.70;57.30;;;;;;5054139;28;20470;-43
2021/08/05 09:38:27;;;;;;;1.60;1.30;;;23.70;57.10;;;;;;5054891;28;20131;-44
2021/08/05 09:41:06;;;;;;;1.60;1.00;;;23.70;57.30;;;;;;5054583;28;20040;-44
2021/08/05 09:43:32;;;;;;;2.70;1.15;;;23.70;57.30;;;;;;5054108;28;20068;-45
2021/08/05 09:45:58;;;;;;;3.42;1.30;;;23.70;57.30;;;;;;5054244;28;20056;-45
2021/08/05 09:48:34;;;;;;;2.28;1.30;;;23.70;57.10;;;;;;5053570;28;20032;-45
2021/08/05 09:51:09;;;;;;;1.98;1.23;;;23.70;56.90;;;;;;5054750;28;20087;-43
2021/08/05 09:53:35;;;;;;;2.00;1.10;;;23.70;57.20;;;;;;5070996;28;20020;-44
2021/08/05 09:56:12;;;;;;;2.88;1.30;;;23.70;57.20;;;;;;5074614;28;20031;-44
2021/08/05 09:58:41;;;;;;;3.08;1.25;;;23.70;57.20;;;;;;5073518;28;20474;-44
2021/08/05 10:01:08;;;;;;;2.38;1.38;;;23.70;57.10;;;;;;5074091;28;20505;-43
2021/08/05 10:03:34;;;;;;;2.22;1.30;;;23.80;57.20;;;;;;5072337;28;20037;-45
2021/08/05 10:06:02;;;;;;;3.88;1.20;;;23.70;57.40;;;;;;5074381;28;20024;-44
2021/08/05 10:08:38;;;;;;;2.15;1.38;;;23.70;57.20;;;;;;5073376;28;20032;-43
2021/08/05 10:11:06;;;;;;;2.08;1.30;;;23.80;57.30;;;;;;5035403;28;20033;-44
2021/08/05 10:13:34;;;;;;;2.00;1.00;;;23.80;57.30;;;;;;5033559;28;20022;-43
2021/08/05 10:16:05;;;;;;;1.95;1.20;;;23.70;57.20;;;;;;5046919;28;20032;-44
2021/08/05 10:18:33;;;;;;;1.52;1.08;;;23.70;57.10;;;;;;5053548;28;20039;-44
2021/08/05 10:21:00;;;;;;;2.40;1.10;;;23.70;57.20;;;;;;5054005;28;20136;-43
2021/08/05 10:23:28;;;;;;;3.05;1.20;;;23.80;57.10;;;;;;5068628;28;20032;-43
2021/08/05 10:26:03;;;;;;;1.17;1.00;;;23.80;56.80;;;;;;5074365;28;20032;-43
2021/08/05 10:28:29;;;;;;;2.85;1.17;;;23.80;56.70;;;;;;5073565;28;20051;-44
2021/08/05 10:30:57;;;;;;;1.42;1.20;;;23.70;56.80;;;;;;5074691;28;20354;-43
2021/08/05 10:33:24;;;;;;;1.55;1.10;;;23.70;56.70;;;;;;5072763;28;20458;-45
2021/08/05 10:35:50;;;;;;;1.50;1.10;;;23.80;56.70;;;;;;5073737;28;20029;-43
2021/08/05 10:38:21;;;;;;;1.70;0.90;;;23.70;56.70;;;;;;5073944;28;20033;-43
2021/08/05 10:40:52;;;;;;;1.10;1.00;;;23.70;56.90;;;;;;5073187;28;20028;-43
2021/08/05 10:43:18;;;;;;;1.98;1.15;;;23.70;56.80;;;;;;5074075;28;20033;-43
2021/08/05 10:45:44;;;;;;;1.77;1.10;;;23.80;56.70;;;;;;5059760;28;20017;-43
2021/08/05 10:48:10;;;;;;;1.48;1.13;;;23.80;56.20;;;;;;5053850;28;20031;-43
2021/08/05 10:50:42;;;;;;;1.40;1.25;;;23.70;56.70;;;;;;5052754;28;20103;-43
2021/08/05 10:53:31;;;;;;;1.17;0.90;;;23.80;56.60;;;;;;5065395;28;20078;-43
2021/08/05 10:56:18;;;;;;;2.20;1.73;;;23.80;56.70;;;;;;5073211;28;20421;-43
2021/08/05 10:59:04;;;;;;;2.88;1.40;;;23.90;56.90;;;;;;5051746;28;20032;-43
2021/08/05 11:01:58;;;;;;;1.55;1.30;;;23.90;57.00;;;;;;5052745;28;20394;-43
2021/08/05 11:04:33;;;;;;;4.10;1.13;;;23.90;56.70;;;;;;5053057;28;20021;-45
2021/08/05 11:07:20;;;;;;;2.58;1.08;;;23.90;56.70;;;;;;5053208;28;20061;-44
2021/08/05 11:09:46;;;;;;;1.60;1.25;;;23.80;57.30;;;;;;5052700;28;20374;-43
2021/08/05 11:12:41;;;;;;;1.00;0.88;;;23.80;57.10;;;;;;5052368;28;20025;-43
2021/08/05 11:15:22;;;;;;;1.45;0.93;;;23.80;56.80;;;;;;5053240;28;20021;-43
2021/08/05 11:18:06;;;;;;;2.58;1.10;;;23.80;56.80;;;;;;5052898;28;20055;-43
2021/08/05 11:20:33;;;;;;;1.02;0.93;;;23.80;56.30;;;;;;5052408;28;20028;-43
2021/08/05 11:22:59;;;;;;;1.52;1.05;;;23.80;56.70;;;;;;5064138;28;20029;-43
2021/08/05 11:25:24;;;;;;;1.63;1.00;;;23.80;56.60;;;;;;5071984;28;20039;-50
2021/08/05 11:28:25;;;;;;;1.73;1.00;;;23.80;56.50;;;;;;5073005;28;20409;-43
2021/08/05 11:31:00;;;;;;;1.42;1.02;;;23.80;56.30;;;;;;5072902;28;20036;-45
2021/08/05 11:33:41;;;;;;;1.05;0.80;;;23.80;56.40;;;;;;5072179;28;20094;-49
2021/08/05 11:36:32;;;;;;;1.42;0.85;;;23.80;56.90;;;;;;5072774;28;20085;-43
2021/08/05 11:39:04;;;;;;;2.75;1.10;;;23.80;56.40;;;;;;5072817;28;20121;-43
2021/08/05 11:41:47;;;;;;;1.40;0.90;;;23.80;56.30;;;;;;5071747;28;20378;-43
2021/08/05 11:44:27;;;;;;;1.88;1.33;;;23.80;56.20;;;;;;5072685;28;20039;-43
2021/08/05 11:47:17;;;;;;;1.58;0.90;;;23.80;55.90;;;;;;5072591;28;20021;-44
2021/08/05 11:49:57;;;;;;;1.20;1.10;;;23.80;55.70;;;;;;5071742;28;20036;-43
2021/08/05 11:52:27;;;;;;;1.00;0.80;;;23.80;56.00;;;;;;5071322;28;20025;-43
2021/08/05 11:55:05;;;;;;;1.10;0.90;;;23.80;55.80;;;;;;5072356;28;20025;-43
2021/08/05 11:57:37;;;;;;;2.13;0.95;;;23.80;55.90;;;;;;5070147;28;20021;-50
2021/08/05 12:00:16;;;;;;;1.33;0.85;;;23.80;55.60;;;;;;5052084;28;20041;-43
2021/08/05 12:02:42;;;;;;;1.23;0.90;;;23.80;55.40;;;;;;5050917;28;20039;-43
2021/08/05 12:05:08;;;;;;;2.33;0.90;;;23.80;55.50;;;;;;5052322;28;20021;-44
2021/08/05 12:07:48;;;;;;;2.42;0.90;;;23.80;55.10;;;;;;5049456;28;20025;-43
2021/08/05 12:10:35;;;;;;;1.98;0.90;;;23.80;55.30;;;;;;5051987;28;20064;-43
2021/08/05 12:13:04;;;;;;;1.73;0.90;;;23.80;55.30;;;;;;5051905;28;20363;-43
2021/08/05 12:15:37;;;;;;;0.90;0.73;;;23.80;55.30;;;;;;5051281;28;20178;-43
2021/08/05 12:18:14;;;;;;;1.70;0.93;;;23.80;55.20;;;;;;5050641;28;20102;-43
2021/08/05 12:20:46;;;;;;;1.10;0.82;;;23.80;55.30;;;;;;5051936;28;20029;-43
2021/08/05 12:23:28;;;;;;;1.10;0.80;;;23.80;55.30;;;;;;5066310;28;20377;-43
2021/08/05 12:26:18;;;;;;;1.17;0.80;;;23.80;55.50;;;;;;5071956;28;20043;-43
2021/08/05 12:28:43;;;;;;;1.20;0.90;;;23.90;55.50;;;;;;5071042;28;20382;-43
2021/08/05 12:31:21;;;;;;;1.38;0.82;;;23.90;55.30;;;;;;5071734;28;20039;-43
2021/08/05 12:33:49;;;;;;;1.13;1.00;;;23.90;55.30;;;;;;5057642;28;20021;-43
2021/08/05 12:36:17;;;;;;;1.10;1.00;;;23.90;55.30;;;;;;5052819;28;20028;-43
2021/08/05 12:39:07;;;;;;;2.13;1.25;;;23.90;55.40;;;;;;5052304;28;20041;-43
2021/08/05 12:41:35;;;;;;;1.58;1.08;;;23.90;55.40;;;;;;5049822;28;20057;-43
2021/08/05 12:44:05;;;;;;;2.15;1.05;;;23.90;55.50;;;;;;5053400;28;20025;-43
2021/08/05 12:46:32;;;;;;;1.75;0.90;;;23.90;55.50;;;;;;5051808;28;20063;-44
2021/08/05 12:48:59;;;;;;;1.10;0.90;;;23.90;55.70;;;;;;5051868;28;20032;-43
2021/08/05 12:51:27;;;;;;;1.40;1.05;;;23.90;55.70;;;;;;5048646;28;20029;-43
2021/08/05 12:53:54;;;;;;;1.23;0.90;;;23.80;55.30;;;;;;5043874;28;20051;-50
2021/08/05 12:56:43;;;;;;;2.08;0.80;;;23.80;55.40;;;;;;5050869;28;20021;-43
2021/08/05 12:59:08;;;;;;;1.58;1.20;;;23.80;55.50;;;;;;5051061;28;20486;-43